createdAt,value
2022-11-15T17:09:11.294Z,45.15
2022-11-15T17:11:38.150Z,45.13
2022-11-15T17:14:04.920Z,45.42
2022-11-15T17:16:32.148Z,45.58
2022-11-15T17:18:58.929Z,45.45
2022-11-15T17:21:33.388Z,45.85
2022-11-15T17:24:00.699Z,45.85
2022-11-15T17:26:30.719Z,45.80
2022-11-15T17:29:01.521Z,46.15
2022-11-15T17:31:30.757Z,46.05
2022-11-15T17:33:57.669Z,46.33
2022-11-15T17:36:24.474Z,46.40
2022-11-15T17:38:57.958Z,46.55
2022-11-15T17:41:26.247Z,46.78
2022-11-15T17:43:57.931Z,46.78
2022-11-15T17:46:24.954Z,46.55
2022-11-15T17:48:51.798Z,47.08
2022-11-15T17:51:19.349Z,46.90
2022-11-15T17:53:48.512Z,47.00
2022-11-15T17:56:17.579Z,46.78
2022-11-15T17:58:48.348Z,46.85
2022-11-15T18:01:20.310Z,46.88
2022-11-15T18:03:47.730Z,47.30
2022-11-15T18:06:14.995Z,47.25
2022-11-15T18:08:43.998Z,46.97
2022-11-15T18:11:14.808Z,46.80
2022-11-15T18:13:49.432Z,47.47
2022-11-15T18:16:21.831Z,47.15
2022-11-15T18:18:48.948Z,47.42
2022-11-15T18:21:18.728Z,47.33
2022-11-15T18:23:46.396Z,47.95
2022-11-15T18:26:15.466Z,47.28
2022-11-15T18:28:44.234Z,47.92
2022-11-15T18:31:14.785Z,47.58
2022-11-15T18:33:43.372Z,47.90
2022-11-15T18:36:12.586Z,47.97
2022-11-15T18:38:39.775Z,48.00
2022-11-15T18:41:08.691Z,47.72
2022-11-15T18:43:36.118Z,47.83
2022-11-15T18:46:04.706Z,48.28
2022-11-15T18:48:32.097Z,47.83
2022-11-15T18:51:05.437Z,48.00
2022-11-15T18:53:34.031Z,47.70
2022-11-15T18:56:02.200Z,47.85
2022-11-15T18:58:30.933Z,48.20
2022-11-15T19:01:01.902Z,47.75
2022-11-15T19:03:31.680Z,47.70
2022-11-15T19:06:03.561Z,47.97
2022-11-15T19:08:34.308Z,47.70
2022-11-15T19:11:06.820Z,48.00
2022-11-15T19:13:34.697Z,48.15
2022-11-15T19:16:03.492Z,48.22
2022-11-15T19:18:31.295Z,48.17
2022-11-15T19:21:04.227Z,48.00
2022-11-15T19:23:33.645Z,47.65
2022-11-15T19:26:02.198Z,47.88
2022-11-15T19:28:29.996Z,47.78
2022-11-15T19:31:03.548Z,47.95
2022-11-15T19:33:30.993Z,47.85
2022-11-15T19:36:01.219Z,48.22
2022-11-15T19:38:30.664Z,47.85
2022-11-15T19:40:58.955Z,47.85
2022-11-15T19:43:25.851Z,47.75
2022-11-15T19:45:59.436Z,47.65
2022-11-15T19:48:30.139Z,48.08
2022-11-15T19:51:01.616Z,48.05
2022-11-15T19:53:34.618Z,47.72
2022-11-15T19:56:05.355Z,48.20
2022-11-15T19:58:33.901Z,48.25
2022-11-15T20:01:03.013Z,48.05
2022-11-15T20:03:30.222Z,48.50
2022-11-15T20:06:01.980Z,47.92
2022-11-15T20:08:30.774Z,48.00
2022-11-15T20:10:59.147Z,48.28
2022-11-15T20:13:27.297Z,48.60
2022-11-15T20:15:54.735Z,48.15
2022-11-15T20:18:22.607Z,48.33
2022-11-15T20:20:50.021Z,48.15
2022-11-15T20:23:17.914Z,47.95
2022-11-15T20:25:47.000Z,48.13
2022-11-15T20:28:16.668Z,48.13
2022-11-15T20:30:45.071Z,48.03
2022-11-15T20:33:12.068Z,48.25
2022-11-15T20:35:38.843Z,48.20
2022-11-15T20:38:06.806Z,48.58
2022-11-15T20:40:33.863Z,48.15
2022-11-15T20:43:02.593Z,47.92
2022-11-15T20:45:29.660Z,48.00
2022-11-15T20:47:56.902Z,48.03
2022-11-15T20:50:41.450Z,48.20
2022-11-15T20:53:10.043Z,48.25
2022-11-15T20:55:40.170Z,48.40
2022-11-15T20:58:08.655Z,48.50
2022-11-15T21:00:36.984Z,48.15
2022-11-15T21:03:06.847Z,48.08
2022-11-15T21:05:34.382Z,48.17
2022-11-15T21:08:01.485Z,48.05
2022-11-15T21:10:47.023Z,47.83
2022-11-15T21:13:15.237Z,48.45
2022-11-15T21:15:42.045Z,47.97
2022-11-15T21:18:08.964Z,48.33
2022-11-15T21:20:36.024Z,47.95
2022-11-15T21:23:03.442Z,47.95
2022-11-15T21:25:30.288Z,48.42
2022-11-15T21:27:57.145Z,47.85
2022-11-15T21:30:25.418Z,48.03
2022-11-15T21:32:52.266Z,47.88
2022-11-15T21:35:19.070Z,47.83
2022-11-15T21:37:46.202Z,48.00
2022-11-15T21:40:13.226Z,47.90
2022-11-15T21:42:40.148Z,47.85
2022-11-15T21:45:08.130Z,48.05
2022-11-15T21:47:36.329Z,48.00
2022-11-15T21:50:03.245Z,47.95
2022-11-15T21:52:30.085Z,48.10
2022-11-15T21:54:56.872Z,47.83
2022-11-15T21:57:23.735Z,48.25
2022-11-15T22:00:09.131Z,47.85
2022-11-15T22:02:37.373Z,47.53
2022-11-15T22:05:04.691Z,47.85
2022-11-15T22:07:31.605Z,47.63
2022-11-15T22:09:58.880Z,47.92
2022-11-15T22:12:29.566Z,47.78
2022-11-15T22:14:57.166Z,47.92
2022-11-15T22:17:24.675Z,47.80
2022-11-15T22:19:53.168Z,47.88
2022-11-15T22:22:20.140Z,47.65
2022-11-15T22:24:46.990Z,47.90
2022-11-15T22:27:13.883Z,47.80
2022-11-15T22:29:40.788Z,47.75
2022-11-15T22:32:07.680Z,47.85
2022-11-15T22:34:34.529Z,47.75
2022-11-15T22:37:19.832Z,47.60
2022-11-15T22:39:47.728Z,48.10
2022-11-15T22:42:16.359Z,47.72
2022-11-15T22:44:46.342Z,47.95
2022-11-15T22:47:13.229Z,47.85
2022-11-15T22:49:40.184Z,47.85
2022-11-15T22:52:08.739Z,48.08
2022-11-15T22:54:35.620Z,47.75
2022-11-15T22:57:04.134Z,47.75
2022-11-15T22:59:31.008Z,47.85
2022-11-15T23:01:57.892Z,48.03
2022-11-15T23:04:24.784Z,47.92
2022-11-15T23:06:51.705Z,47.67
2022-11-15T23:09:19.940Z,47.85
2022-11-15T23:12:05.168Z,47.85
2022-11-15T23:14:32.098Z,47.55
2022-11-15T23:16:59.268Z,47.83
2022-11-15T23:19:26.184Z,47.92
2022-11-15T23:22:11.438Z,48.13
2022-11-15T23:24:39.798Z,47.53
2022-11-15T23:27:07.816Z,47.50
2022-11-15T23:29:56.757Z,47.70
2022-11-15T23:32:42.332Z,47.75
2022-11-15T23:35:09.475Z,47.88
2022-11-15T23:37:36.544Z,47.45
2022-11-15T23:40:06.342Z,47.67
2022-11-15T23:42:33.427Z,47.58
2022-11-15T23:45:00.403Z,47.38
2022-11-15T23:47:27.416Z,47.22
2022-11-15T23:49:54.465Z,47.20
2022-11-15T23:52:23.136Z,47.33
2022-11-15T23:54:50.142Z,47.53
2022-11-15T23:57:18.474Z,47.42
2022-11-15T23:59:45.309Z,47.45
